sensor_id;sensor_type;location;lat;lon;timestamp;temperature;humidity
16313;DHT22;8265;52.622;13.296;2023-02-28T00:02:28;-1.30;82.70
16313;DHT22;8265;52.622;13.296;2023-02-28T00:07:49;-1.50;83.40
16313;DHT22;8265;52.622;13.296;2023-02-28T00:13:10;-1.70;82.90
16313;DHT22;8265;52.622;13.296;2023-02-28T00:18:31;-1.90;84.30
16313;DHT22;8265;52.622;13.296;2023-02-28T00:23:52;-2.10;85.00
16313;DHT22;8265;52.622;13.296;2023-02-28T00:29:13;-2.40;85.60
16313;DHT22;8265;52.622;13.296;2023-02-28T00:34:34;-2.40;86.20
16313;DHT22;8265;52.622;13.296;2023-02-28T00:39:55;-2.50;86.50
16313;DHT22;8265;52.622;13.296;2023-02-28T00:45:16;-2.70;87.10
16313;DHT22;8265;52.622;13.296;2023-02-28T00:50:37;-2.80;87.20
16313;DHT22;8265;52.622;13.296;2023-02-28T00:55:58;-3.00;87.80
16313;DHT22;8265;52.622;13.296;2023-02-28T01:01:19;-3.20;88.10
16313;DHT22;8265;52.622;13.296;2023-02-28T01:06:40;-3.20;88.20
16313;DHT22;8265;52.622;13.296;2023-02-28T01:12:01;-3.20;88.50
16313;DHT22;8265;52.622;13.296;2023-02-28T01:17:22;-3.40;89.30
16313;DHT22;8265;52.622;13.296;2023-02-28T01:22:43;-3.20;89.00
16313;DHT22;8265;52.622;13.296;2023-02-28T01:28:04;-3.20;89.30
16313;DHT22;8265;52.622;13.296;2023-02-28T01:33:25;-3.10;89.40
16313;DHT22;8265;52.622;13.296;2023-02-28T01:38:46;-3.20;89.10
16313;DHT22;8265;52.622;13.296;2023-02-28T01:44:54;-3.20;89.00
16313;DHT22;8265;52.622;13.296;2023-02-28T01:49:28;-3.20;90.00
16313;DHT22;8265;52.622;13.296;2023-02-28T01:54:51;-3.40;89.70
16313;DHT22;8265;52.622;13.296;2023-02-28T02:00:11;-3.50;89.40
16313;DHT22;8265;52.622;13.296;2023-02-28T02:05:31;-3.50;90.00
16313;DHT22;8265;52.622;13.296;2023-02-28T02:10:53;-3.60;89.30
16313;DHT22;8265;52.622;13.296;2023-02-28T02:27:01;-3.80;89.50
16313;DHT22;8265;52.622;13.296;2023-02-28T02:43:07;-4.00;91.20
16313;DHT22;8265;52.622;13.296;2023-02-28T02:48:19;-3.80;91.70
16313;DHT22;8265;52.622;13.296;2023-02-28T02:53:57;-3.90;91.10
16313;DHT22;8265;52.622;13.296;2023-02-28T02:59:02;-4.10;91.20
16313;DHT22;8265;52.622;13.296;2023-02-28T03:04:23;-4.30;91.30
16313;DHT22;8265;52.622;13.296;2023-02-28T03:09:52;-4.30;91.60
16313;DHT22;8265;52.622;13.296;2023-02-28T03:15:07;-4.30;92.10
16313;DHT22;8265;52.622;13.296;2023-02-28T03:20:41;-4.30;91.70
16313;DHT22;8265;52.622;13.296;2023-02-28T03:25:56;-4.30;91.90
16313;DHT22;8265;52.622;13.296;2023-02-28T03:31:12;-4.50;92.10
16313;DHT22;8265;52.622;13.296;2023-02-28T03:36:35;-4.40;92.50
16313;DHT22;8265;52.622;13.296;2023-02-28T03:41:57;-4.20;91.80
16313;DHT22;8265;52.622;13.296;2023-02-28T03:47:14;-4.40;91.80
16313;DHT22;8265;52.622;13.296;2023-02-28T03:52:32;-4.60;91.80
16313;DHT22;8265;52.622;13.296;2023-02-28T03:58:05;-4.60;92.20
16313;DHT22;8265;52.622;13.296;2023-02-28T04:03:13;-4.80;92.00
16313;DHT22;8265;52.622;13.296;2023-02-28T04:08:34;-4.80;92.10
16313;DHT22;8265;52.622;13.296;2023-02-28T04:13:54;-4.90;92.30
16313;DHT22;8265;52.622;13.296;2023-02-28T04:19:15;-4.90;92.60
16313;DHT22;8265;52.622;13.296;2023-02-28T04:24:36;-4.90;92.50
16313;DHT22;8265;52.622;13.296;2023-02-28T04:29:57;-5.00;92.20
16313;DHT22;8265;52.622;13.296;2023-02-28T04:35:18;-5.10;92.60
16313;DHT22;8265;52.622;13.296;2023-02-28T04:40:39;-5.00;93.10
16313;DHT22;8265;52.622;13.296;2023-02-28T04:46:01;-5.00;92.80
16313;DHT22;8265;52.622;13.296;2023-02-28T04:51:21;-5.00;92.90
16313;DHT22;8265;52.622;13.296;2023-02-28T04:56:42;-5.10;92.50
16313;DHT22;8265;52.622;13.296;2023-02-28T05:02:04;-5.20;92.20
16313;DHT22;8265;52.622;13.296;2023-02-28T05:07:24;-5.40;92.00
16313;DHT22;8265;52.622;13.296;2023-02-28T05:12:45;-5.30;92.20
16313;DHT22;8265;52.622;13.296;2023-02-28T05:18:07;-5.20;92.90
16313;DHT22;8265;52.622;13.296;2023-02-28T05:23:27;-5.40;92.90
16313;DHT22;8265;52.622;13.296;2023-02-28T05:28:48;-5.30;93.30
16313;DHT22;8265;52.622;13.296;2023-02-28T05:34:09;-5.20;93.50
16313;DHT22;8265;52.622;13.296;2023-02-28T05:39:30;-5.30;92.80
16313;DHT22;8265;52.622;13.296;2023-02-28T05:44:51;-5.40;93.00
16313;DHT22;8265;52.622;13.296;2023-02-28T05:50:12;-5.40;93.00
16313;DHT22;8265;52.622;13.296;2023-02-28T05:55:33;-5.60;93.00
16313;DHT22;8265;52.622;13.296;2023-02-28T06:00:54;-5.40;93.30
16313;DHT22;8265;52.622;13.296;2023-02-28T06:06:15;-5.40;92.80
16313;DHT22;8265;52.622;13.296;2023-02-28T06:11:36;-5.60;92.50
16313;DHT22;8265;52.622;13.296;2023-02-28T06:16:58;-5.40;93.10
16313;DHT22;8265;52.622;13.296;2023-02-28T06:22:18;-5.40;92.70
16313;DHT22;8265;52.622;13.296;2023-02-28T06:27:39;-5.40;92.70
16313;DHT22;8265;52.622;13.296;2023-02-28T06:33:00;-5.30;92.40
16313;DHT22;8265;52.622;13.296;2023-02-28T06:38:21;-5.20;92.80
16313;DHT22;8265;52.622;13.296;2023-02-28T06:43:43;-5.10;92.60
16313;DHT22;8265;52.622;13.296;2023-02-28T06:49:03;-5.10;92.70
16313;DHT22;8265;52.622;13.296;2023-02-28T06:54:24;-4.90;92.80
16313;DHT22;8265;52.622;13.296;2023-02-28T06:59:45;-4.80;92.60
16313;DHT22;8265;52.622;13.296;2023-02-28T07:05:06;-4.60;92.30
16313;DHT22;8265;52.622;13.296;2023-02-28T07:10:27;-4.50;92.10
16313;DHT22;8265;52.622;13.296;2023-02-28T07:15:58;-4.20;92.20
16313;DHT22;8265;52.622;13.296;2023-02-28T07:21:10;-3.20;90.70
16313;DHT22;8265;52.622;13.296;2023-02-28T07:26:30;-1.90;85.70
16313;DHT22;8265;52.622;13.296;2023-02-28T07:31:51;-1.20;84.00
16313;DHT22;8265;52.622;13.296;2023-02-28T07:37:12;-1.10;81.00
16313;DHT22;8265;52.622;13.296;2023-02-28T07:42:34;-1.50;82.30
16313;DHT22;8265;52.622;13.296;2023-02-28T07:47:55;-1.50;83.50
16313;DHT22;8265;52.622;13.296;2023-02-28T07:53:15;-1.40;83.20
16313;DHT22;8265;52.622;13.296;2023-02-28T07:58:36;-1.20;83.10
16313;DHT22;8265;52.622;13.296;2023-02-28T08:03:57;-1.10;82.50
16313;DHT22;8265;52.622;13.296;2023-02-28T08:09:19;-0.90;81.60
16313;DHT22;8265;52.622;13.296;2023-02-28T08:14:39;-0.60;79.70
16313;DHT22;8265;52.622;13.296;2023-02-28T08:20:00;-0.30;78.80
16313;DHT22;8265;52.622;13.296;2023-02-28T08:25:21;-0.10;77.70
16313;DHT22;8265;52.622;13.296;2023-02-28T08:30:42;0.00;76.50
16313;DHT22;8265;52.622;13.296;2023-02-28T08:36:03;0.30;74.20
16313;DHT22;8265;52.622;13.296;2023-02-28T08:41:25;0.90;75.10
16313;DHT22;8265;52.622;13.296;2023-02-28T08:46:45;1.80;71.90
16313;DHT22;8265;52.622;13.296;2023-02-28T08:52:06;2.00;66.90
16313;DHT22;8265;52.622;13.296;2023-02-28T08:57:27;2.50;64.00
16313;DHT22;8265;52.622;13.296;2023-02-28T09:02:48;2.50;58.30
16313;DHT22;8265;52.622;13.296;2023-02-28T09:08:09;2.40;58.90
16313;DHT22;8265;52.622;13.296;2023-02-28T09:13:30;2.60;57.20
16313;DHT22;8265;52.622;13.296;2023-02-28T09:18:51;2.80;55.40
16313;DHT22;8265;52.622;13.296;2023-02-28T09:24:12;2.80;56.90
16313;DHT22;8265;52.622;13.296;2023-02-28T09:29:33;2.90;55.10
16313;DHT22;8265;52.622;13.296;2023-02-28T09:34:54;2.50;54.30
16313;DHT22;8265;52.622;13.296;2023-02-28T09:40:15;2.80;53.20
16313;DHT22;8265;52.622;13.296;2023-02-28T09:45:37;3.00;53.50
16313;DHT22;8265;52.622;13.296;2023-02-28T09:51:15;3.20;52.00
16313;DHT22;8265;52.622;13.296;2023-02-28T09:56:20;3.10;52.60
16313;DHT22;8265;52.622;13.296;2023-02-28T10:02:00;3.10;50.80
16313;DHT22;8265;52.622;13.296;2023-02-28T10:07:01;3.10;51.80
16313;DHT22;8265;52.622;13.296;2023-02-28T10:12:21;3.30;51.60
16313;DHT22;8265;52.622;13.296;2023-02-28T10:17:43;3.50;51.50
16313;DHT22;8265;52.622;13.296;2023-02-28T10:23:05;3.10;50.10
16313;DHT22;8265;52.622;13.296;2023-02-28T10:28:24;3.40;51.40
16313;DHT22;8265;52.622;13.296;2023-02-28T10:33:45;3.50;48.80
16313;DHT22;8265;52.622;13.296;2023-02-28T10:39:35;3.70;51.40
16313;DHT22;8265;52.622;13.296;2023-02-28T10:44:27;3.70;50.40
16313;DHT22;8265;52.622;13.296;2023-02-28T10:49:48;3.70;49.70
16313;DHT22;8265;52.622;13.296;2023-02-28T10:55:25;3.60;49.60
16313;DHT22;8265;52.622;13.296;2023-02-28T11:00:34;3.60;49.50
16313;DHT22;8265;52.622;13.296;2023-02-28T11:05:51;3.80;50.20
16313;DHT22;8265;52.622;13.296;2023-02-28T11:11:12;3.90;49.30
16313;DHT22;8265;52.622;13.296;2023-02-28T11:16:34;4.00;48.90
16313;DHT22;8265;52.622;13.296;2023-02-28T11:21:55;4.00;49.80
16313;DHT22;8265;52.622;13.296;2023-02-28T11:32:36;3.80;48.00
16313;DHT22;8265;52.622;13.296;2023-02-28T11:37:57;3.90;48.60
16313;DHT22;8265;52.622;13.296;2023-02-28T11:43:37;3.90;49.10
16313;DHT22;8265;52.622;13.296;2023-02-28T11:54:18;4.00;48.30
16313;DHT22;8265;52.622;13.296;2023-02-28T12:31:31;4.50;47.80
16313;DHT22;8265;52.622;13.296;2023-02-28T12:36:49;4.50;47.80
16313;DHT22;8265;52.622;13.296;2023-02-28T12:42:29;4.60;46.50
16313;DHT22;8265;52.622;13.296;2023-02-28T12:47:30;4.70;46.80
16313;DHT22;8265;52.622;13.296;2023-02-28T12:53:02;4.70;46.70
16313;DHT22;8265;52.622;13.296;2023-02-28T12:58:30;4.60;46.90
16313;DHT22;8265;52.622;13.296;2023-02-28T13:09:13;4.70;46.20
16313;DHT22;8265;52.622;13.296;2023-02-28T13:14:26;4.70;47.30
16313;DHT22;8265;52.622;13.296;2023-02-28T13:19:46;4.70;46.40
16313;DHT22;8265;52.622;13.296;2023-02-28T13:24:57;4.50;46.80
16313;DHT22;8265;52.622;13.296;2023-02-28T13:35:42;4.70;48.30
16313;DHT22;8265;52.622;13.296;2023-02-28T13:46:21;5.10;48.50
16313;DHT22;8265;52.622;13.296;2023-02-28T13:51:43;5.00;48.20
16313;DHT22;8265;52.622;13.296;2023-02-28T14:02:50;4.70;47.60
16313;DHT22;8265;52.622;13.296;2023-02-28T14:07:46;4.70;47.50
16313;DHT22;8265;52.622;13.296;2023-02-28T14:18:33;4.90;46.40
16313;DHT22;8265;52.622;13.296;2023-02-28T14:24:08;5.10;45.90
16313;DHT22;8265;52.622;13.296;2023-02-28T14:34:52;5.20;45.60
16313;DHT22;8265;52.622;13.296;2023-02-28T14:39:51;5.10;45.20
16313;DHT22;8265;52.622;13.296;2023-02-28T14:45:21;5.30;45.40
16313;DHT22;8265;52.622;13.296;2023-02-28T14:50:34;5.30;45.40
16313;DHT22;8265;52.622;13.296;2023-02-28T14:55:54;5.20;45.50
16313;DHT22;8265;52.622;13.296;2023-02-28T15:01:15;5.30;44.60
16313;DHT22;8265;52.622;13.296;2023-02-28T15:06:36;5.30;45.00
16313;DHT22;8265;52.622;13.296;2023-02-28T15:11:57;5.10;46.00
16313;DHT22;8265;52.622;13.296;2023-02-28T15:17:21;5.00;46.50
16313;DHT22;8265;52.622;13.296;2023-02-28T15:22:39;4.90;46.50
16313;DHT22;8265;52.622;13.296;2023-02-28T15:28:00;4.90;46.40
16313;DHT22;8265;52.622;13.296;2023-02-28T15:33:22;4.70;46.90
16313;DHT22;8265;52.622;13.296;2023-02-28T15:38:42;4.70;47.50
16313;DHT22;8265;52.622;13.296;2023-02-28T15:44:26;4.60;47.40
16313;DHT22;8265;52.622;13.296;2023-02-28T15:49:24;4.50;48.00
16313;DHT22;8265;52.622;13.296;2023-02-28T15:54:45;4.40;47.70
16313;DHT22;8265;52.622;13.296;2023-02-28T16:00:06;4.30;49.20
16313;DHT22;8265;52.622;13.296;2023-02-28T16:05:28;4.00;50.50
16313;DHT22;8265;52.622;13.296;2023-02-28T16:10:48;3.90;51.00
16313;DHT22;8265;52.622;13.296;2023-02-28T16:16:14;3.60;51.20
16313;DHT22;8265;52.622;13.296;2023-02-28T16:21:30;3.30;51.90
16313;DHT22;8265;52.622;13.296;2023-02-28T16:26:51;3.00;53.00
16313;DHT22;8265;52.622;13.296;2023-02-28T16:32:13;2.80;53.30
16313;DHT22;8265;52.622;13.296;2023-02-28T16:37:33;2.50;53.90
16313;DHT22;8265;52.622;13.296;2023-02-28T16:42:55;2.30;54.00
16313;DHT22;8265;52.622;13.296;2023-02-28T16:48:15;2.00;56.00
16313;DHT22;8265;52.622;13.296;2023-02-28T16:53:36;1.60;57.80
16313;DHT22;8265;52.622;13.296;2023-02-28T16:58:58;1.00;60.00
16313;DHT22;8265;52.622;13.296;2023-02-28T17:04:18;0.60;61.70
16313;DHT22;8265;52.622;13.296;2023-02-28T17:09:39;0.40;63.30
16313;DHT22;8265;52.622;13.296;2023-02-28T17:15:00;0.10;64.20
16313;DHT22;8265;52.622;13.296;2023-02-28T17:20:21;0.00;64.40
16313;DHT22;8265;52.622;13.296;2023-02-28T17:25:41;-0.10;66.00
16313;DHT22;8265;52.622;13.296;2023-02-28T17:31:03;0.40;69.60
16313;DHT22;8265;52.622;13.296;2023-02-28T17:36:25;0.60;63.90
16313;DHT22;8265;52.622;13.296;2023-02-28T17:41:44;-0.10;66.00
16313;DHT22;8265;52.622;13.296;2023-02-28T17:47:05;-0.70;68.20
16313;DHT22;8265;52.622;13.296;2023-02-28T17:52:26;-0.90;68.90
16313;DHT22;8265;52.622;13.296;2023-02-28T17:57:48;-1.00;69.40
16313;DHT22;8265;52.622;13.296;2023-02-28T18:03:09;-1.10;70.00
16313;DHT22;8265;52.622;13.296;2023-02-28T18:08:30;-1.30;70.30
16313;DHT22;8265;52.622;13.296;2023-02-28T18:13:51;-1.30;70.70
16313;DHT22;8265;52.622;13.296;2023-02-28T18:19:12;-1.50;71.50
16313;DHT22;8265;52.622;13.296;2023-02-28T18:24:33;-1.70;71.90
16313;DHT22;8265;52.622;13.296;2023-02-28T18:29:54;-1.60;71.60
16313;DHT22;8265;52.622;13.296;2023-02-28T18:35:14;-1.80;72.40
16313;DHT22;8265;52.622;13.296;2023-02-28T18:40:36;-1.90;77.40
16313;DHT22;8265;52.622;13.296;2023-02-28T18:45:57;-1.50;72.80
16313;DHT22;8265;52.622;13.296;2023-02-28T18:51:18;-1.50;69.60
16313;DHT22;8265;52.622;13.296;2023-02-28T18:56:38;-1.50;70.50
16313;DHT22;8265;52.622;13.296;2023-02-28T19:01:59;-2.00;73.40
16313;DHT22;8265;52.622;13.296;2023-02-28T19:07:20;-2.20;73.20
16313;DHT22;8265;52.622;13.296;2023-02-28T19:12:41;-2.50;74.30
16313;DHT22;8265;52.622;13.296;2023-02-28T19:18:03;-2.50;74.60
16313;DHT22;8265;52.622;13.296;2023-02-28T19:23:24;-2.50;74.60
16313;DHT22;8265;52.622;13.296;2023-02-28T19:28:44;-2.40;75.20
16313;DHT22;8265;52.622;13.296;2023-02-28T19:34:05;-2.20;74.00
16313;DHT22;8265;52.622;13.296;2023-02-28T19:39:26;-2.50;75.00
16313;DHT22;8265;52.622;13.296;2023-02-28T19:44:47;-2.70;75.50
16313;DHT22;8265;52.622;13.296;2023-02-28T19:50:09;-3.00;77.30
16313;DHT22;8265;52.622;13.296;2023-02-28T19:55:29;-3.20;78.30
16313;DHT22;8265;52.622;13.296;2023-02-28T20:00:50;-3.20;79.00
16313;DHT22;8265;52.622;13.296;2023-02-28T20:06:11;-3.20;78.90
16313;DHT22;8265;52.622;13.296;2023-02-28T20:11:32;-3.50;79.70
16313;DHT22;8265;52.622;13.296;2023-02-28T20:16:53;-3.20;81.40
16313;DHT22;8265;52.622;13.296;2023-02-28T20:22:15;-3.20;79.00
16313;DHT22;8265;52.622;13.296;2023-02-28T20:27:36;-3.50;79.80
16313;DHT22;8265;52.622;13.296;2023-02-28T20:32:56;-3.50;80.10
16313;DHT22;8265;52.622;13.296;2023-02-28T20:38:17;-3.60;80.00
16313;DHT22;8265;52.622;13.296;2023-02-28T20:43:39;-3.60;80.50
16313;DHT22;8265;52.622;13.296;2023-02-28T20:48:59;-3.80;81.20
16313;DHT22;8265;52.622;13.296;2023-02-28T20:54:20;-3.80;81.80
16313;DHT22;8265;52.622;13.296;2023-02-28T20:59:42;-3.80;81.30
16313;DHT22;8265;52.622;13.296;2023-02-28T21:05:03;-3.60;80.90
16313;DHT22;8265;52.622;13.296;2023-02-28T21:10:24;-3.50;80.20
16313;DHT22;8265;52.622;13.296;2023-02-28T21:15:45;-3.80;81.10
16313;DHT22;8265;52.622;13.296;2023-02-28T21:21:10;-3.80;81.90
16313;DHT22;8265;52.622;13.296;2023-02-28T21:26:27;-3.80;81.70
16313;DHT22;8265;52.622;13.296;2023-02-28T21:31:51;-3.60;81.20
16313;DHT22;8265;52.622;13.296;2023-02-28T21:37:09;-3.60;80.90
16313;DHT22;8265;52.622;13.296;2023-02-28T21:42:30;-4.00;82.70
16313;DHT22;8265;52.622;13.296;2023-02-28T21:47:51;-4.10;83.40
16313;DHT22;8265;52.622;13.296;2023-02-28T21:53:12;-3.90;83.10
16313;DHT22;8265;52.622;13.296;2023-02-28T21:58:33;-3.80;81.90
16313;DHT22;8265;52.622;13.296;2023-02-28T22:03:54;-3.90;82.10
16313;DHT22;8265;52.622;13.296;2023-02-28T22:09:15;-3.80;81.50
16313;DHT22;8265;52.622;13.296;2023-02-28T22:14:37;-4.00;81.90
16313;DHT22;8265;52.622;13.296;2023-02-28T22:19:57;-4.00;81.50
16313;DHT22;8265;52.622;13.296;2023-02-28T22:25:18;-4.10;82.30
16313;DHT22;8265;52.622;13.296;2023-02-28T22:30:39;-4.30;82.80
16313;DHT22;8265;52.622;13.296;2023-02-28T22:36:03;-4.30;83.60
16313;DHT22;8265;52.622;13.296;2023-02-28T22:41:21;-4.30;83.40
16313;DHT22;8265;52.622;13.296;2023-02-28T22:46:42;-4.50;84.10
16313;DHT22;8265;52.622;13.296;2023-02-28T22:52:03;-4.60;84.20
16313;DHT22;8265;52.622;13.296;2023-02-28T22:57:24;-4.60;84.00
16313;DHT22;8265;52.622;13.296;2023-02-28T23:02:45;-4.60;84.50
16313;DHT22;8265;52.622;13.296;2023-02-28T23:08:06;-4.40;84.20
16313;DHT22;8265;52.622;13.296;2023-02-28T23:13:27;-4.40;83.50
16313;DHT22;8265;52.622;13.296;2023-02-28T23:18:48;-4.50;84.10
16313;DHT22;8265;52.622;13.296;2023-02-28T23:24:09;-4.70;84.70
16313;DHT22;8265;52.622;13.296;2023-02-28T23:29:30;-5.00;85.20
16313;DHT22;8265;52.622;13.296;2023-02-28T23:34:51;-5.00;86.10
16313;DHT22;8265;52.622;13.296;2023-02-28T23:40:12;-5.10;86.10
16313;DHT22;8265;52.622;13.296;2023-02-28T23:45:33;-5.10;86.60
16313;DHT22;8265;52.622;13.296;2023-02-28T23:50:54;-5.20;86.70
16313;DHT22;8265;52.622;13.296;2023-02-28T23:56:16;-5.10;86.10
